sensor_id;sensor_type;location;lat;lon;timestamp;temperature;humidity
20891;DHT22;10605;52.968;8.844;2023-09-12T00:01:41;20.80;99.90
20891;DHT22;10605;52.968;8.844;2023-09-12T00:04:07;20.80;99.90
20891;DHT22;10605;52.968;8.844;2023-09-12T00:06:32;20.70;99.90
20891;DHT22;10605;52.968;8.844;2023-09-12T00:08:58;20.60;99.90
20891;DHT22;10605;52.968;8.844;2023-09-12T00:11:24;20.60;99.90
20891;DHT22;10605;52.968;8.844;2023-09-12T00:13:51;20.50;99.90
20891;DHT22;10605;52.968;8.844;2023-09-12T00:16:17;20.50;99.90
20891;DHT22;10605;52.968;8.844;2023-09-12T00:18:42;20.40;99.90
20891;DHT22;10605;52.968;8.844;2023-09-12T00:21:08;20.40;99.90
20891;DHT22;10605;52.968;8.844;2023-09-12T00:23:34;20.30;99.90
20891;DHT22;10605;52.968;8.844;2023-09-12T00:26:00;20.20;99.90
20891;DHT22;10605;52.968;8.844;2023-09-12T00:28:26;20.20;99.90
20891;DHT22;10605;52.968;8.844;2023-09-12T00:30:52;20.20;99.90
20891;DHT22;10605;52.968;8.844;2023-09-12T00:33:18;20.20;99.90
20891;DHT22;10605;52.968;8.844;2023-09-12T00:35:44;20.20;99.90
20891;DHT22;10605;52.968;8.844;2023-09-12T00:38:10;20.20;99.90
20891;DHT22;10605;52.968;8.844;2023-09-12T00:40:36;20.20;99.90
20891;DHT22;10605;52.968;8.844;2023-09-12T00:43:03;20.20;99.90
20891;DHT22;10605;52.968;8.844;2023-09-12T00:45:28;20.20;99.90
20891;DHT22;10605;52.968;8.844;2023-09-12T00:47:55;20.20;99.90
20891;DHT22;10605;52.968;8.844;2023-09-12T00:50:23;20.30;99.90
20891;DHT22;10605;52.968;8.844;2023-09-12T00:52:50;20.30;99.90
20891;DHT22;10605;52.968;8.844;2023-09-12T00:55:18;20.30;99.90
20891;DHT22;10605;52.968;8.844;2023-09-12T00:57:45;20.30;99.90
20891;DHT22;10605;52.968;8.844;2023-09-12T01:00:12;20.40;99.90
20891;DHT22;10605;52.968;8.844;2023-09-12T01:02:42;20.30;99.90
20891;DHT22;10605;52.968;8.844;2023-09-12T01:05:10;20.40;99.90
20891;DHT22;10605;52.968;8.844;2023-09-12T01:07:37;20.40;99.90
20891;DHT22;10605;52.968;8.844;2023-09-12T01:10:06;20.40;99.90
20891;DHT22;10605;52.968;8.844;2023-09-12T01:12:32;20.40;99.90
20891;DHT22;10605;52.968;8.844;2023-09-12T01:14:58;20.40;99.90
20891;DHT22;10605;52.968;8.844;2023-09-12T01:17:24;20.40;99.90
20891;DHT22;10605;52.968;8.844;2023-09-12T01:19:51;20.40;99.90
20891;DHT22;10605;52.968;8.844;2023-09-12T01:27:50;20.40;99.90
20891;DHT22;10605;52.968;8.844;2023-09-12T01:30:22;20.40;99.90
20891;DHT22;10605;52.968;8.844;2023-09-12T01:32:48;20.40;99.90
20891;DHT22;10605;52.968;8.844;2023-09-12T01:35:15;20.40;99.90
20891;DHT22;10605;52.968;8.844;2023-09-12T01:37:41;20.40;99.90
20891;DHT22;10605;52.968;8.844;2023-09-12T01:40:07;20.40;99.90
20891;DHT22;10605;52.968;8.844;2023-09-12T01:42:45;20.30;99.90
20891;DHT22;10605;52.968;8.844;2023-09-12T01:45:15;20.40;99.90
20891;DHT22;10605;52.968;8.844;2023-09-12T01:47:42;20.40;99.90
20891;DHT22;10605;52.968;8.844;2023-09-12T01:50:09;20.40;99.90
20891;DHT22;10605;52.968;8.844;2023-09-12T01:52:38;20.40;99.90
20891;DHT22;10605;52.968;8.844;2023-09-12T01:55:05;20.40;99.90
20891;DHT22;10605;52.968;8.844;2023-09-12T01:57:32;20.40;99.90
20891;DHT22;10605;52.968;8.844;2023-09-12T01:59:58;20.40;99.90
20891;DHT22;10605;52.968;8.844;2023-09-12T02:02:24;20.30;99.90
20891;DHT22;10605;52.968;8.844;2023-09-12T02:05:16;20.30;99.90
20891;DHT22;10605;52.968;8.844;2023-09-12T02:07:45;20.30;99.90
20891;DHT22;10605;52.968;8.844;2023-09-12T02:10:11;20.20;99.90
20891;DHT22;10605;52.968;8.844;2023-09-12T02:12:37;20.10;99.90
20891;DHT22;10605;52.968;8.844;2023-09-12T02:15:04;20.10;99.90
20891;DHT22;10605;52.968;8.844;2023-09-12T02:17:30;20.10;99.90
20891;DHT22;10605;52.968;8.844;2023-09-12T02:19:55;20.10;99.90
20891;DHT22;10605;52.968;8.844;2023-09-12T02:22:21;20.10;99.90
20891;DHT22;10605;52.968;8.844;2023-09-12T02:24:47;20.10;99.90
20891;DHT22;10605;52.968;8.844;2023-09-12T02:27:12;20.10;99.90
20891;DHT22;10605;52.968;8.844;2023-09-12T02:29:39;20.20;99.90
20891;DHT22;10605;52.968;8.844;2023-09-12T02:32:05;20.10;99.90
20891;DHT22;10605;52.968;8.844;2023-09-12T02:34:32;20.10;99.90
20891;DHT22;10605;52.968;8.844;2023-09-12T02:36:58;20.10;99.90
20891;DHT22;10605;52.968;8.844;2023-09-12T02:39:23;20.10;99.90
20891;DHT22;10605;52.968;8.844;2023-09-12T02:41:49;20.10;99.90
20891;DHT22;10605;52.968;8.844;2023-09-12T02:44:15;20.10;99.90
20891;DHT22;10605;52.968;8.844;2023-09-12T02:46:41;20.10;99.90
20891;DHT22;10605;52.968;8.844;2023-09-12T02:49:07;20.20;99.90
20891;DHT22;10605;52.968;8.844;2023-09-12T02:51:33;20.10;99.90
20891;DHT22;10605;52.968;8.844;2023-09-12T02:53:59;20.10;99.90
20891;DHT22;10605;52.968;8.844;2023-09-12T02:56:24;20.10;99.90
20891;DHT22;10605;52.968;8.844;2023-09-12T02:58:50;20.10;99.90
20891;DHT22;10605;52.968;8.844;2023-09-12T03:01:17;20.10;99.90
20891;DHT22;10605;52.968;8.844;2023-09-12T03:03:45;20.10;99.90
20891;DHT22;10605;52.968;8.844;2023-09-12T03:06:12;20.10;99.90
20891;DHT22;10605;52.968;8.844;2023-09-12T03:08:38;20.10;99.90
20891;DHT22;10605;52.968;8.844;2023-09-12T03:11:04;20.10;99.90
20891;DHT22;10605;52.968;8.844;2023-09-12T03:13:30;20.10;99.90
20891;DHT22;10605;52.968;8.844;2023-09-12T03:15:56;20.10;99.90
20891;DHT22;10605;52.968;8.844;2023-09-12T03:18:21;20.10;99.90
20891;DHT22;10605;52.968;8.844;2023-09-12T03:20:47;20.10;99.90
20891;DHT22;10605;52.968;8.844;2023-09-12T03:23:13;20.10;99.90
20891;DHT22;10605;52.968;8.844;2023-09-12T03:25:39;20.10;99.90
20891;DHT22;10605;52.968;8.844;2023-09-12T03:28:06;20.10;99.90
20891;DHT22;10605;52.968;8.844;2023-09-12T03:30:35;20.00;99.90
20891;DHT22;10605;52.968;8.844;2023-09-12T03:33:02;20.00;99.90
20891;DHT22;10605;52.968;8.844;2023-09-12T03:35:31;20.00;99.90
20891;DHT22;10605;52.968;8.844;2023-09-12T03:37:57;20.00;99.90
20891;DHT22;10605;52.968;8.844;2023-09-12T03:40:23;19.90;99.90
20891;DHT22;10605;52.968;8.844;2023-09-12T03:42:48;19.90;99.90
20891;DHT22;10605;52.968;8.844;2023-09-12T03:45:14;19.90;99.90
20891;DHT22;10605;52.968;8.844;2023-09-12T03:47:40;19.90;99.90
20891;DHT22;10605;52.968;8.844;2023-09-12T03:50:06;19.90;99.90
20891;DHT22;10605;52.968;8.844;2023-09-12T03:52:32;19.80;99.90
20891;DHT22;10605;52.968;8.844;2023-09-12T03:54:57;19.80;99.90
20891;DHT22;10605;52.968;8.844;2023-09-12T03:57:26;19.80;99.90
20891;DHT22;10605;52.968;8.844;2023-09-12T03:59:52;19.70;99.90
20891;DHT22;10605;52.968;8.844;2023-09-12T04:02:18;19.70;99.90
20891;DHT22;10605;52.968;8.844;2023-09-12T04:04:44;19.70;99.90
20891;DHT22;10605;52.968;8.844;2023-09-12T04:07:09;19.70;99.90
20891;DHT22;10605;52.968;8.844;2023-09-12T04:09:35;19.70;99.90
20891;DHT22;10605;52.968;8.844;2023-09-12T04:12:01;19.70;99.90
20891;DHT22;10605;52.968;8.844;2023-09-12T04:14:27;19.70;99.90
20891;DHT22;10605;52.968;8.844;2023-09-12T04:16:52;19.70;99.90
20891;DHT22;10605;52.968;8.844;2023-09-12T04:19:18;19.80;99.90
20891;DHT22;10605;52.968;8.844;2023-09-12T04:21:43;19.80;99.90
20891;DHT22;10605;52.968;8.844;2023-09-12T04:24:09;19.80;99.90
20891;DHT22;10605;52.968;8.844;2023-09-12T04:26:36;19.70;99.90
20891;DHT22;10605;52.968;8.844;2023-09-12T04:29:02;19.70;99.90
20891;DHT22;10605;52.968;8.844;2023-09-12T04:31:28;19.70;99.90
20891;DHT22;10605;52.968;8.844;2023-09-12T04:33:54;19.80;99.90
20891;DHT22;10605;52.968;8.844;2023-09-12T04:36:20;19.70;99.90
20891;DHT22;10605;52.968;8.844;2023-09-12T04:38:46;19.70;99.90
20891;DHT22;10605;52.968;8.844;2023-09-12T04:41:13;19.80;99.90
20891;DHT22;10605;52.968;8.844;2023-09-12T04:43:42;19.80;99.90
20891;DHT22;10605;52.968;8.844;2023-09-12T04:46:09;19.80;99.90
20891;DHT22;10605;52.968;8.844;2023-09-12T04:48:35;19.80;99.90
20891;DHT22;10605;52.968;8.844;2023-09-12T04:51:01;19.90;99.90
20891;DHT22;10605;52.968;8.844;2023-09-12T04:53:26;19.90;99.90
20891;DHT22;10605;52.968;8.844;2023-09-12T04:55:53;19.90;99.90
20891;DHT22;10605;52.968;8.844;2023-09-12T04:58:19;19.90;99.90
20891;DHT22;10605;52.968;8.844;2023-09-12T05:00:45;19.80;99.90
20891;DHT22;10605;52.968;8.844;2023-09-12T05:03:11;19.80;99.90
20891;DHT22;10605;52.968;8.844;2023-09-12T05:05:37;19.80;99.90
20891;DHT22;10605;52.968;8.844;2023-09-12T05:08:03;19.80;99.90
20891;DHT22;10605;52.968;8.844;2023-09-12T05:10:30;19.80;99.90
20891;DHT22;10605;52.968;8.844;2023-09-12T05:12:55;19.80;99.90
20891;DHT22;10605;52.968;8.844;2023-09-12T05:15:21;19.70;99.90
20891;DHT22;10605;52.968;8.844;2023-09-12T05:17:47;19.70;99.90
20891;DHT22;10605;52.968;8.844;2023-09-12T05:20:12;19.70;99.90
20891;DHT22;10605;52.968;8.844;2023-09-12T05:22:38;19.70;99.90
20891;DHT22;10605;52.968;8.844;2023-09-12T05:25:04;19.70;99.90
20891;DHT22;10605;52.968;8.844;2023-09-12T05:27:30;19.70;99.90
20891;DHT22;10605;52.968;8.844;2023-09-12T05:29:55;19.70;99.90
20891;DHT22;10605;52.968;8.844;2023-09-12T05:32:21;19.70;99.90
20891;DHT22;10605;52.968;8.844;2023-09-12T05:34:47;19.70;99.90
20891;DHT22;10605;52.968;8.844;2023-09-12T05:37:15;19.70;99.90
20891;DHT22;10605;52.968;8.844;2023-09-12T05:39:41;19.70;99.90
20891;DHT22;10605;52.968;8.844;2023-09-12T05:42:07;19.70;99.90
20891;DHT22;10605;52.968;8.844;2023-09-12T05:44:33;19.70;99.90
20891;DHT22;10605;52.968;8.844;2023-09-12T05:47:06;19.70;99.90
20891;DHT22;10605;52.968;8.844;2023-09-12T05:49:32;19.70;99.90
20891;DHT22;10605;52.968;8.844;2023-09-12T05:51:59;19.70;99.90
20891;DHT22;10605;52.968;8.844;2023-09-12T05:54:25;19.70;99.90
20891;DHT22;10605;52.968;8.844;2023-09-12T05:56:51;19.70;99.90
20891;DHT22;10605;52.968;8.844;2023-09-12T05:59:18;19.70;99.90
20891;DHT22;10605;52.968;8.844;2023-09-12T06:01:44;19.70;99.90
20891;DHT22;10605;52.968;8.844;2023-09-12T06:04:10;19.70;99.90
20891;DHT22;10605;52.968;8.844;2023-09-12T06:06:36;19.70;99.90
20891;DHT22;10605;52.968;8.844;2023-09-12T06:09:03;19.70;99.90
20891;DHT22;10605;52.968;8.844;2023-09-12T06:11:30;19.70;99.90
20891;DHT22;10605;52.968;8.844;2023-09-12T06:13:57;19.80;99.90
20891;DHT22;10605;52.968;8.844;2023-09-12T06:16:24;19.70;99.90
20891;DHT22;10605;52.968;8.844;2023-09-12T06:18:51;19.80;99.90
20891;DHT22;10605;52.968;8.844;2023-09-12T06:21:20;19.80;99.90
20891;DHT22;10605;52.968;8.844;2023-09-12T06:23:48;19.90;99.90
20891;DHT22;10605;52.968;8.844;2023-09-12T06:26:14;19.90;99.90
20891;DHT22;10605;52.968;8.844;2023-09-12T06:29:04;19.90;99.90
20891;DHT22;10605;52.968;8.844;2023-09-12T06:31:30;19.90;99.90
20891;DHT22;10605;52.968;8.844;2023-09-12T06:33:56;19.90;99.90
20891;DHT22;10605;52.968;8.844;2023-09-12T06:36:25;19.90;99.90
20891;DHT22;10605;52.968;8.844;2023-09-12T06:38:52;19.90;99.90
20891;DHT22;10605;52.968;8.844;2023-09-12T06:41:21;20.00;99.90
20891;DHT22;10605;52.968;8.844;2023-09-12T06:43:47;20.10;99.90
20891;DHT22;10605;52.968;8.844;2023-09-12T06:46:15;20.20;99.90
20891;DHT22;10605;52.968;8.844;2023-09-12T06:48:47;20.30;99.90
20891;DHT22;10605;52.968;8.844;2023-09-12T06:51:15;20.60;99.90
20891;DHT22;10605;52.968;8.844;2023-09-12T06:53:41;20.80;99.90
20891;DHT22;10605;52.968;8.844;2023-09-12T06:56:07;21.10;99.90
20891;DHT22;10605;52.968;8.844;2023-09-12T06:58:33;21.40;99.90
20891;DHT22;10605;52.968;8.844;2023-09-12T07:01:06;21.70;99.90
20891;DHT22;10605;52.968;8.844;2023-09-12T07:03:35;22.00;99.90
20891;DHT22;10605;52.968;8.844;2023-09-12T07:06:02;22.40;99.90
20891;DHT22;10605;52.968;8.844;2023-09-12T07:08:32;22.60;99.90
20891;DHT22;10605;52.968;8.844;2023-09-12T07:10:59;22.70;99.90
20891;DHT22;10605;52.968;8.844;2023-09-12T07:13:32;22.90;99.90
20891;DHT22;10605;52.968;8.844;2023-09-12T07:15:58;23.00;99.90
20891;DHT22;10605;52.968;8.844;2023-09-12T07:18:24;23.30;99.90
20891;DHT22;10605;52.968;8.844;2023-09-12T07:21:04;23.40;99.90
20891;DHT22;10605;52.968;8.844;2023-09-12T07:23:30;23.60;99.90
20891;DHT22;10605;52.968;8.844;2023-09-12T07:25:57;23.60;99.90
20891;DHT22;10605;52.968;8.844;2023-09-12T07:28:24;23.70;99.90
20891;DHT22;10605;52.968;8.844;2023-09-12T07:30:49;23.80;99.90
20891;DHT22;10605;52.968;8.844;2023-09-12T07:33:15;23.90;99.90
20891;DHT22;10605;52.968;8.844;2023-09-12T07:35:41;23.70;99.90
20891;DHT22;10605;52.968;8.844;2023-09-12T07:38:07;23.70;99.90
20891;DHT22;10605;52.968;8.844;2023-09-12T07:40:33;23.50;99.90
20891;DHT22;10605;52.968;8.844;2023-09-12T07:43:00;23.50;99.90
20891;DHT22;10605;52.968;8.844;2023-09-12T07:45:36;23.60;99.90
20891;DHT22;10605;52.968;8.844;2023-09-12T07:48:25;23.50;99.90
20891;DHT22;10605;52.968;8.844;2023-09-12T07:50:55;23.10;99.90
20891;DHT22;10605;52.968;8.844;2023-09-12T07:53:51;23.20;99.90
20891;DHT22;10605;52.968;8.844;2023-09-12T07:56:22;23.10;99.90
20891;DHT22;10605;52.968;8.844;2023-09-12T07:58:54;23.00;99.90
20891;DHT22;10605;52.968;8.844;2023-09-12T08:01:23;23.00;99.90
20891;DHT22;10605;52.968;8.844;2023-09-12T08:03:50;23.00;99.90
20891;DHT22;10605;52.968;8.844;2023-09-12T08:06:34;23.20;99.90
20891;DHT22;10605;52.968;8.844;2023-09-12T08:09:46;23.40;99.90
20891;DHT22;10605;52.968;8.844;2023-09-12T08:12:14;23.50;99.90
20891;DHT22;10605;52.968;8.844;2023-09-12T08:15:15;23.60;99.90
20891;DHT22;10605;52.968;8.844;2023-09-12T08:17:41;23.50;99.90
20891;DHT22;10605;52.968;8.844;2023-09-12T08:20:10;23.50;99.90
20891;DHT22;10605;52.968;8.844;2023-09-12T08:22:37;23.50;99.90
20891;DHT22;10605;52.968;8.844;2023-09-12T08:25:02;23.40;99.90
20891;DHT22;10605;52.968;8.844;2023-09-12T08:27:28;23.40;99.90
20891;DHT22;10605;52.968;8.844;2023-09-12T08:29:55;23.50;99.90
20891;DHT22;10605;52.968;8.844;2023-09-12T08:32:24;23.50;99.90
20891;DHT22;10605;52.968;8.844;2023-09-12T08:34:56;23.40;99.90
20891;DHT22;10605;52.968;8.844;2023-09-12T08:37:42;23.30;99.90
20891;DHT22;10605;52.968;8.844;2023-09-12T08:40:12;23.20;99.90
20891;DHT22;10605;52.968;8.844;2023-09-12T08:42:41;23.00;99.90
20891;DHT22;10605;52.968;8.844;2023-09-12T08:45:20;23.00;99.90
20891;DHT22;10605;52.968;8.844;2023-09-12T08:47:53;22.70;99.90
20891;DHT22;10605;52.968;8.844;2023-09-12T08:50:20;22.40;99.90
20891;DHT22;10605;52.968;8.844;2023-09-12T08:52:47;22.10;99.90
20891;DHT22;10605;52.968;8.844;2023-09-12T08:55:14;22.00;99.90
20891;DHT22;10605;52.968;8.844;2023-09-12T08:57:42;21.90;99.90
20891;DHT22;10605;52.968;8.844;2023-09-12T09:00:09;22.00;99.90
20891;DHT22;10605;52.968;8.844;2023-09-12T09:02:39;22.10;99.90
20891;DHT22;10605;52.968;8.844;2023-09-12T09:05:10;22.00;99.90
20891;DHT22;10605;52.968;8.844;2023-09-12T09:07:41;21.80;99.90
20891;DHT22;10605;52.968;8.844;2023-09-12T09:10:18;21.80;99.90
20891;DHT22;10605;52.968;8.844;2023-09-12T09:12:49;21.80;99.90
20891;DHT22;10605;52.968;8.844;2023-09-12T09:15:30;21.70;99.90
20891;DHT22;10605;52.968;8.844;2023-09-12T09:17:58;21.60;99.90
20891;DHT22;10605;52.968;8.844;2023-09-12T09:20:50;21.60;99.90
20891;DHT22;10605;52.968;8.844;2023-09-12T09:23:18;21.70;99.90
20891;DHT22;10605;52.968;8.844;2023-09-12T09:25:52;21.70;99.90
20891;DHT22;10605;52.968;8.844;2023-09-12T09:28:23;21.80;99.90
20891;DHT22;10605;52.968;8.844;2023-09-12T09:30:51;21.80;99.90
20891;DHT22;10605;52.968;8.844;2023-09-12T09:33:19;21.80;99.90
20891;DHT22;10605;52.968;8.844;2023-09-12T09:35:47;21.70;99.90
20891;DHT22;10605;52.968;8.844;2023-09-12T09:38:13;21.70;99.90
20891;DHT22;10605;52.968;8.844;2023-09-12T09:40:44;21.70;99.90
20891;DHT22;10605;52.968;8.844;2023-09-12T09:43:10;21.70;99.90
20891;DHT22;10605;52.968;8.844;2023-09-12T09:45:44;21.60;99.90
20891;DHT22;10605;52.968;8.844;2023-09-12T09:48:23;21.50;99.90
20891;DHT22;10605;52.968;8.844;2023-09-12T09:51:02;21.30;99.90
20891;DHT22;10605;52.968;8.844;2023-09-12T09:53:29;21.20;99.90
20891;DHT22;10605;52.968;8.844;2023-09-12T09:56:14;21.20;99.90
20891;DHT22;10605;52.968;8.844;2023-09-12T09:58:47;21.20;99.90
20891;DHT22;10605;52.968;8.844;2023-09-12T10:01:20;21.20;99.90
20891;DHT22;10605;52.968;8.844;2023-09-12T10:03:48;21.30;99.90
20891;DHT22;10605;52.968;8.844;2023-09-12T10:06:19;21.40;99.90
20891;DHT22;10605;52.968;8.844;2023-09-12T10:08:52;21.50;99.90
20891;DHT22;10605;52.968;8.844;2023-09-12T10:11:22;21.50;99.90
20891;DHT22;10605;52.968;8.844;2023-09-12T10:13:57;21.50;99.90
20891;DHT22;10605;52.968;8.844;2023-09-12T10:16:24;21.50;99.90
20891;DHT22;10605;52.968;8.844;2023-09-12T10:19:16;21.50;99.90
20891;DHT22;10605;52.968;8.844;2023-09-12T10:24:27;21.50;99.90
20891;DHT22;10605;52.968;8.844;2023-09-12T10:30:02;21.30;99.90
20891;DHT22;10605;52.968;8.844;2023-09-12T10:32:28;21.20;99.90
20891;DHT22;10605;52.968;8.844;2023-09-12T10:34:58;21.20;99.90
20891;DHT22;10605;52.968;8.844;2023-09-12T10:37:25;21.20;99.90
20891;DHT22;10605;52.968;8.844;2023-09-12T10:39:56;21.20;99.90
20891;DHT22;10605;52.968;8.844;2023-09-12T10:42:24;21.40;99.90
20891;DHT22;10605;52.968;8.844;2023-09-12T10:44:54;21.30;99.90
20891;DHT22;10605;52.968;8.844;2023-09-12T10:47:21;21.40;99.90
20891;DHT22;10605;52.968;8.844;2023-09-12T10:49:47;21.40;99.90
20891;DHT22;10605;52.968;8.844;2023-09-12T10:52:26;21.40;99.90
20891;DHT22;10605;52.968;8.844;2023-09-12T10:54:52;21.40;99.90
20891;DHT22;10605;52.968;8.844;2023-09-12T10:57:23;21.40;99.90
20891;DHT22;10605;52.968;8.844;2023-09-12T11:02:34;21.40;99.90
20891;DHT22;10605;52.968;8.844;2023-09-12T11:05:04;21.40;99.90
20891;DHT22;10605;52.968;8.844;2023-09-12T11:07:48;21.40;99.90
20891;DHT22;10605;52.968;8.844;2023-09-12T11:10:18;21.40;99.90
20891;DHT22;10605;52.968;8.844;2023-09-12T11:12:55;21.60;99.90
20891;DHT22;10605;52.968;8.844;2023-09-12T11:15:27;21.70;99.90
20891;DHT22;10605;52.968;8.844;2023-09-12T11:18:20;21.90;99.90
20891;DHT22;10605;52.968;8.844;2023-09-12T11:21:55;22.00;99.90
20891;DHT22;10605;52.968;8.844;2023-09-12T11:28:51;22.70;99.90
20891;DHT22;10605;52.968;8.844;2023-09-12T11:42:30;23.70;99.90
20891;DHT22;10605;52.968;8.844;2023-09-12T11:44:56;23.40;99.90
20891;DHT22;10605;52.968;8.844;2023-09-12T11:47:22;23.60;99.90
20891;DHT22;10605;52.968;8.844;2023-09-12T11:49:48;24.70;99.90
20891;DHT22;10605;52.968;8.844;2023-09-12T11:52:16;25.20;99.90
20891;DHT22;10605;52.968;8.844;2023-09-12T11:54:45;25.90;99.90
20891;DHT22;10605;52.968;8.844;2023-09-12T11:57:13;25.50;99.90
20891;DHT22;10605;52.968;8.844;2023-09-12T11:59:41;25.60;99.90
20891;DHT22;10605;52.968;8.844;2023-09-12T12:02:10;26.90;99.90
20891;DHT22;10605;52.968;8.844;2023-09-12T12:04:38;27.90;99.90
20891;DHT22;10605;52.968;8.844;2023-09-12T12:07:13;30.40;99.90
20891;DHT22;10605;52.968;8.844;2023-09-12T12:09:45;31.40;99.90
20891;DHT22;10605;52.968;8.844;2023-09-12T12:12:13;31.90;99.90
20891;DHT22;10605;52.968;8.844;2023-09-12T12:15:09;31.20;99.90
20891;DHT22;10605;52.968;8.844;2023-09-12T12:18:01;32.80;99.90
20891;DHT22;10605;52.968;8.844;2023-09-12T12:20:49;33.10;99.90
20891;DHT22;10605;52.968;8.844;2023-09-12T12:23:32;31.80;99.90
20891;DHT22;10605;52.968;8.844;2023-09-12T12:26:09;28.70;99.90
20891;DHT22;10605;52.968;8.844;2023-09-12T12:28:37;28.90;99.90
20891;DHT22;10605;52.968;8.844;2023-09-12T12:31:05;29.30;99.90
20891;DHT22;10605;52.968;8.844;2023-09-12T12:33:32;30.40;99.90
20891;DHT22;10605;52.968;8.844;2023-09-12T12:36:05;30.60;99.90
20891;DHT22;10605;52.968;8.844;2023-09-12T12:38:58;30.10;99.90
20891;DHT22;10605;52.968;8.844;2023-09-12T12:42:39;28.90;99.90
20891;DHT22;10605;52.968;8.844;2023-09-12T12:45:56;27.60;99.90
20891;DHT22;10605;52.968;8.844;2023-09-12T12:49:08;27.00;99.90
20891;DHT22;10605;52.968;8.844;2023-09-12T12:56:48;26.50;99.90
20891;DHT22;10605;52.968;8.844;2023-09-12T13:00:19;26.00;99.90
20891;DHT22;10605;52.968;8.844;2023-09-12T13:03:13;25.70;99.90
20891;DHT22;10605;52.968;8.844;2023-09-12T13:13:01;25.60;99.90
20891;DHT22;10605;52.968;8.844;2023-09-12T13:15:27;25.50;99.90
20891;DHT22;10605;52.968;8.844;2023-09-12T13:17:54;25.60;99.90
20891;DHT22;10605;52.968;8.844;2023-09-12T13:20:32;25.30;99.90
20891;DHT22;10605;52.968;8.844;2023-09-12T13:23:01;25.10;99.90
20891;DHT22;10605;52.968;8.844;2023-09-12T13:25:32;24.80;99.90
20891;DHT22;10605;52.968;8.844;2023-09-12T13:27:58;24.80;99.90
20891;DHT22;10605;52.968;8.844;2023-09-12T13:30:25;24.80;99.90
20891;DHT22;10605;52.968;8.844;2023-09-12T13:32:53;24.80;99.90
20891;DHT22;10605;52.968;8.844;2023-09-12T13:35:25;25.00;99.90
20891;DHT22;10605;52.968;8.844;2023-09-12T13:37:53;25.10;99.90
20891;DHT22;10605;52.968;8.844;2023-09-12T13:40:19;25.10;99.90
20891;DHT22;10605;52.968;8.844;2023-09-12T13:42:46;24.90;99.90
20891;DHT22;10605;52.968;8.844;2023-09-12T13:45:12;24.80;99.90
20891;DHT22;10605;52.968;8.844;2023-09-12T13:47:38;24.70;99.90
20891;DHT22;10605;52.968;8.844;2023-09-12T13:50:04;24.80;99.90
20891;DHT22;10605;52.968;8.844;2023-09-12T13:52:30;24.90;99.90
20891;DHT22;10605;52.968;8.844;2023-09-12T13:54:56;25.10;99.90
20891;DHT22;10605;52.968;8.844;2023-09-12T13:57:22;25.00;99.90
20891;DHT22;10605;52.968;8.844;2023-09-12T13:59:47;25.00;99.90
20891;DHT22;10605;52.968;8.844;2023-09-12T14:02:13;24.90;99.90
20891;DHT22;10605;52.968;8.844;2023-09-12T14:04:39;24.80;99.90
20891;DHT22;10605;52.968;8.844;2023-09-12T14:07:05;24.70;99.90
20891;DHT22;10605;52.968;8.844;2023-09-12T14:09:31;24.50;99.90
20891;DHT22;10605;52.968;8.844;2023-09-12T14:11:57;24.50;99.90
20891;DHT22;10605;52.968;8.844;2023-09-12T14:14:32;24.50;99.90
20891;DHT22;10605;52.968;8.844;2023-09-12T14:17:04;24.50;99.90
20891;DHT22;10605;52.968;8.844;2023-09-12T14:19:59;24.40;99.90
20891;DHT22;10605;52.968;8.844;2023-09-12T14:22:49;24.40;99.90
20891;DHT22;10605;52.968;8.844;2023-09-12T14:25:16;24.60;99.90
20891;DHT22;10605;52.968;8.844;2023-09-12T14:27:43;24.60;99.90
20891;DHT22;10605;52.968;8.844;2023-09-12T14:30:11;24.60;99.90
20891;DHT22;10605;52.968;8.844;2023-09-12T14:32:41;24.70;99.90
20891;DHT22;10605;52.968;8.844;2023-09-12T14:35:08;24.70;99.90
20891;DHT22;10605;52.968;8.844;2023-09-12T14:37:35;24.60;99.90
20891;DHT22;10605;52.968;8.844;2023-09-12T14:40:04;24.50;99.90
20891;DHT22;10605;52.968;8.844;2023-09-12T14:42:30;24.50;99.90
20891;DHT22;10605;52.968;8.844;2023-09-12T14:45:01;24.50;99.90
20891;DHT22;10605;52.968;8.844;2023-09-12T14:47:45;24.60;99.90
20891;DHT22;10605;52.968;8.844;2023-09-12T14:50:37;24.50;99.90
20891;DHT22;10605;52.968;8.844;2023-09-12T14:53:10;24.70;99.90
20891;DHT22;10605;52.968;8.844;2023-09-12T14:56:00;24.60;99.90
20891;DHT22;10605;52.968;8.844;2023-09-12T14:58:42;24.40;99.90
20891;DHT22;10605;52.968;8.844;2023-09-12T15:01:45;24.30;99.90
20891;DHT22;10605;52.968;8.844;2023-09-12T15:04:34;24.40;99.90
20891;DHT22;10605;52.968;8.844;2023-09-12T15:07:06;24.50;99.90
20891;DHT22;10605;52.968;8.844;2023-09-12T15:09:49;24.70;99.90
20891;DHT22;10605;52.968;8.844;2023-09-12T15:12:44;24.60;99.90
20891;DHT22;10605;52.968;8.844;2023-09-12T15:15:38;24.50;99.90
20891;DHT22;10605;52.968;8.844;2023-09-12T15:25:02;24.20;99.90
20891;DHT22;10605;52.968;8.844;2023-09-12T15:27:27;24.10;99.90
20891;DHT22;10605;52.968;8.844;2023-09-12T15:29:55;24.00;99.90
20891;DHT22;10605;52.968;8.844;2023-09-12T15:32:21;23.90;99.90
20891;DHT22;10605;52.968;8.844;2023-09-12T15:34:47;23.90;99.90
20891;DHT22;10605;52.968;8.844;2023-09-12T15:37:13;23.90;99.90
20891;DHT22;10605;52.968;8.844;2023-09-12T15:39:40;23.90;99.90
20891;DHT22;10605;52.968;8.844;2023-09-12T15:42:06;23.90;99.90
20891;DHT22;10605;52.968;8.844;2023-09-12T15:44:32;23.90;99.90
20891;DHT22;10605;52.968;8.844;2023-09-12T15:46:58;23.90;99.90
20891;DHT22;10605;52.968;8.844;2023-09-12T15:49:25;24.00;99.90
20891;DHT22;10605;52.968;8.844;2023-09-12T15:51:51;24.00;99.90
20891;DHT22;10605;52.968;8.844;2023-09-12T15:54:17;24.00;99.90
20891;DHT22;10605;52.968;8.844;2023-09-12T15:56:42;24.20;99.90
20891;DHT22;10605;52.968;8.844;2023-09-12T15:59:08;24.20;99.90
20891;DHT22;10605;52.968;8.844;2023-09-12T16:01:34;24.20;99.90
20891;DHT22;10605;52.968;8.844;2023-09-12T16:04:00;24.20;99.90
20891;DHT22;10605;52.968;8.844;2023-09-12T16:06:26;24.50;99.90
20891;DHT22;10605;52.968;8.844;2023-09-12T16:08:51;24.60;99.90
20891;DHT22;10605;52.968;8.844;2023-09-12T16:11:23;24.60;99.90
20891;DHT22;10605;52.968;8.844;2023-09-12T16:13:51;24.70;99.90
20891;DHT22;10605;52.968;8.844;2023-09-12T16:16:20;24.70;99.90
20891;DHT22;10605;52.968;8.844;2023-09-12T16:18:52;24.70;99.90
20891;DHT22;10605;52.968;8.844;2023-09-12T16:21:18;24.70;99.90
20891;DHT22;10605;52.968;8.844;2023-09-12T16:23:44;24.70;99.90
20891;DHT22;10605;52.968;8.844;2023-09-12T16:26:09;24.50;99.90
20891;DHT22;10605;52.968;8.844;2023-09-12T16:28:35;24.30;99.90
20891;DHT22;10605;52.968;8.844;2023-09-12T16:31:01;24.20;99.90
20891;DHT22;10605;52.968;8.844;2023-09-12T16:33:28;23.90;99.90
20891;DHT22;10605;52.968;8.844;2023-09-12T16:35:53;23.80;99.90
20891;DHT22;10605;52.968;8.844;2023-09-12T16:38:19;23.60;99.90